Time;durP1;ratioP1;P1;durP2;ratioP2;P2;SDS_P1;SDS_P2;PMS_P1;PMS_P2;Temp;Humidity;BMP_temperature;BMP_pressure;BME280_temperature;BME280_humidity;BME280_pressure;Samples;Min_cycle;Max_cycle;Signal;HPM_P1;HPM_P2
2023/10/26 02:18:26;;;;;;;28.55;14.77;;;10.00;99.90;;;;;;5050104;28;20040;-72
2023/10/26 02:20:51;;;;;;;28.77;16.13;;;10.00;99.90;;;;;;5024510;28;20456;-71
2023/10/26 02:23:17;;;;;;;27.75;16.23;;;9.90;99.90;;;;;;5043075;28;20128;-72
2023/10/26 02:25:42;;;;;;;34.38;17.13;;;9.90;99.90;;;;;;5035136;28;20051;-73
2023/10/26 02:28:08;;;;;;;28.63;17.67;;;9.90;99.90;;;;;;5041978;28;20044;-72
2023/10/26 02:30:33;;;;;;;32.30;18.02;;;10.00;99.90;;;;;;5047683;28;20071;-72
2023/10/26 02:32:59;;;;;;;32.55;19.50;;;10.00;99.90;;;;;;5038303;28;20429;-72
2023/10/26 02:35:24;;;;;;;31.52;18.08;;;10.00;99.90;;;;;;5047176;28;20088;-72
2023/10/26 02:37:50;;;;;;;32.63;18.85;;;10.00;99.90;;;;;;5033514;28;20397;-72
2023/10/26 02:40:15;;;;;;;31.58;16.30;;;10.00;99.90;;;;;;5033848;28;20404;-71
2023/10/26 02:42:41;;;;;;;36.90;18.60;;;10.00;99.90;;;;;;5049923;28;20519;-71
2023/10/26 02:45:08;;;;;;;32.88;17.60;;;10.00;99.90;;;;;;5024195;28;20053;-71
2023/10/26 02:47:34;;;;;;;27.92;15.20;;;10.10;99.90;;;;;;5043270;28;20072;-72
2023/10/26 02:50:00;;;;;;;32.45;17.67;;;10.10;99.90;;;;;;5052613;28;20068;-72
2023/10/26 02:52:25;;;;;;;28.90;16.60;;;10.10;99.90;;;;;;5019542;28;20488;-72
2023/10/26 02:54:51;;;;;;;29.70;16.58;;;10.10;99.90;;;;;;5034295;28;20141;-72
2023/10/26 02:57:16;;;;;;;32.00;17.52;;;10.10;99.90;;;;;;5052738;28;20095;-72
2023/10/26 02:59:42;;;;;;;33.13;18.70;;;10.20;99.90;;;;;;5042176;28;20599;-72
2023/10/26 03:02:07;;;;;;;31.65;17.80;;;10.20;99.90;;;;;;5050886;28;20481;-71
2023/10/26 03:04:37;;;;;;;36.38;20.92;;;10.20;99.90;;;;;;5034291;28;20049;-72
2023/10/26 03:07:03;;;;;;;36.03;19.67;;;10.20;99.90;;;;;;5047614;28;20029;-72
2023/10/26 03:09:29;;;;;;;33.67;18.23;;;10.20;99.90;;;;;;5015318;28;20060;-72
2023/10/26 03:11:55;;;;;;;37.35;18.55;;;10.20;99.90;;;;;;5049168;28;20072;-72
2023/10/26 03:14:20;;;;;;;37.10;19.38;;;10.20;99.90;;;;;;5052201;28;20041;-72
2023/10/26 03:16:47;;;;;;;36.20;20.80;;;10.30;99.90;;;;;;5052510;28;20048;-72
2023/10/26 03:19:12;;;;;;;39.83;21.85;;;10.30;99.90;;;;;;5025119;28;20041;-72
2023/10/26 03:21:38;;;;;;;35.30;18.85;;;10.30;99.90;;;;;;5032492;28;20032;-71
2023/10/26 03:24:04;;;;;;;30.67;16.90;;;10.30;99.90;;;;;;5036637;28;20050;-72
2023/10/26 03:26:30;;;;;;;38.47;21.60;;;10.30;99.90;;;;;;5025278;28;20401;-71
2023/10/26 03:28:55;;;;;;;41.97;20.95;;;10.30;99.90;;;;;;5034610;28;20033;-72
2023/10/26 03:31:21;;;;;;;38.65;19.23;;;10.30;99.90;;;;;;5052154;28;20087;-72
2023/10/26 03:33:46;;;;;;;35.38;19.75;;;10.30;99.90;;;;;;5026720;28;20105;-72
2023/10/26 03:36:18;;;;;;;34.75;19.92;;;10.30;99.90;;;;;;5029335;28;20080;-71
2023/10/26 03:38:45;;;;;;;35.85;18.05;;;10.20;99.90;;;;;;5041448;28;20063;-72
2023/10/26 03:41:10;;;;;;;36.22;20.92;;;10.20;99.90;;;;;;5030363;28;20051;-71
2023/10/26 03:43:36;;;;;;;43.05;21.98;;;10.20;99.90;;;;;;5046493;28;20043;-71
2023/10/26 03:46:02;;;;;;;41.42;22.02;;;10.20;99.90;;;;;;5051326;28;20045;-71
2023/10/26 03:48:28;;;;;;;36.33;20.38;;;10.20;99.90;;;;;;5051963;28;20040;-72
2023/10/26 03:50:53;;;;;;;39.78;22.05;;;10.30;99.90;;;;;;5047893;28;20037;-71
2023/10/26 03:53:19;;;;;;;38.75;21.27;;;10.20;99.90;;;;;;5023155;28;20582;-72
2023/10/26 03:55:45;;;;;;;34.10;18.98;;;10.20;99.90;;;;;;5051307;28;20405;-72
2023/10/26 03:58:15;;;;;;;42.67;20.10;;;10.20;99.90;;;;;;5029017;28;20508;-72
2023/10/26 04:00:41;;;;;;;37.15;21.10;;;10.30;99.90;;;;;;5048677;28;20162;-72
2023/10/26 04:03:06;;;;;;;35.30;19.77;;;10.20;99.90;;;;;;5041607;28;20041;-72
2023/10/26 04:05:32;;;;;;;43.40;23.67;;;10.20;99.90;;;;;;5048569;28;20489;-72
2023/10/26 04:08:00;;;;;;;37.92;20.77;;;10.30;99.90;;;;;;5029729;28;20048;-72
2023/10/26 04:10:26;;;;;;;33.72;15.85;;;10.20;99.90;;;;;;5026037;28;20036;-72
2023/10/26 04:12:51;;;;;;;38.95;21.80;;;10.20;99.90;;;;;;5049991;28;20047;-71
2023/10/26 04:15:17;;;;;;;44.55;21.02;;;10.20;99.90;;;;;;5036009;28;20052;-71
2023/10/26 04:17:42;;;;;;;40.50;21.58;;;10.20;99.90;;;;;;5027864;28;20029;-72
2023/10/26 04:20:09;;;;;;;41.05;21.88;;;10.20;99.90;;;;;;5041392;28;20687;-71
2023/10/26 04:22:34;;;;;;;44.25;22.80;;;10.20;99.90;;;;;;5020500;28;20042;-71
2023/10/26 04:25:00;;;;;;;36.85;19.85;;;10.20;99.90;;;;;;5039631;28;20056;-72
2023/10/26 04:27:25;;;;;;;39.78;21.20;;;10.20;99.90;;;;;;5041548;28;20045;-72
2023/10/26 04:29:51;;;;;;;40.78;21.48;;;10.20;99.90;;;;;;5051191;28;20048;-72
2023/10/26 04:32:17;;;;;;;37.95;20.15;;;10.20;99.90;;;;;;5018173;28;20500;-71
2023/10/26 04:34:44;;;;;;;37.45;20.02;;;10.10;99.90;;;;;;5036922;28;20073;-72
2023/10/26 04:37:10;;;;;;;38.83;21.75;;;10.20;99.90;;;;;;5042056;28;20055;-71
2023/10/26 04:39:36;;;;;;;39.47;22.00;;;10.10;99.90;;;;;;5039689;28;20461;-72
2023/10/26 04:42:03;;;;;;;35.50;18.23;;;10.10;99.90;;;;;;5027815;28;20049;-71
2023/10/26 04:44:28;;;;;;;36.15;18.98;;;10.10;99.90;;;;;;5037687;28;20435;-71
2023/10/26 04:46:54;;;;;;;40.70;22.63;;;10.10;99.90;;;;;;5051019;28;20029;-72
2023/10/26 04:49:19;;;;;;;40.97;21.17;;;10.10;99.90;;;;;;5028179;28;20389;-72
2023/10/26 04:51:45;;;;;;;42.88;22.48;;;10.10;99.90;;;;;;5037523;28;20530;-72
2023/10/26 04:54:11;;;;;;;41.88;20.80;;;10.10;99.90;;;;;;5054694;28;20657;-72
2023/10/26 04:56:36;;;;;;;37.47;19.70;;;10.10;99.90;;;;;;5052319;28;20496;-72
2023/10/26 04:59:02;;;;;;;41.78;20.88;;;10.10;99.90;;;;;;5041042;28;20049;-72
2023/10/26 05:01:27;;;;;;;47.88;22.73;;;10.10;99.90;;;;;;5045195;28;20504;-71
2023/10/26 05:03:53;;;;;;;42.35;21.73;;;10.10;99.90;;;;;;5053550;28;20080;-72
2023/10/26 05:06:19;;;;;;;42.33;21.15;;;10.10;99.90;;;;;;5025655;28;20049;-72
2023/10/26 05:08:46;;;;;;;42.53;22.23;;;10.10;99.90;;;;;;5056539;28;20045;-72
2023/10/26 05:11:12;;;;;;;40.75;22.13;;;10.10;99.90;;;;;;5064726;28;20435;-72
2023/10/26 05:13:38;;;;;;;38.10;20.67;;;10.10;99.90;;;;;;5055870;28;20116;-72
2023/10/26 05:16:04;;;;;;;40.63;19.50;;;10.00;99.90;;;;;;5026013;28;20052;-72
2023/10/26 05:18:29;;;;;;;43.95;22.27;;;10.00;99.90;;;;;;5054026;28;20044;-72
2023/10/26 05:20:55;;;;;;;40.35;23.15;;;10.00;99.90;;;;;;5051096;28;20045;-71
2023/10/26 05:23:21;;;;;;;41.85;23.05;;;10.00;99.90;;;;;;5024043;28;20045;-72
2023/10/26 05:25:48;;;;;;;41.63;21.80;;;10.00;99.90;;;;;;5022532;28;20042;-72
2023/10/26 05:28:13;;;;;;;45.10;22.88;;;10.00;99.90;;;;;;5046883;28;20069;-72
2023/10/26 05:30:39;;;;;;;47.33;23.52;;;9.90;99.90;;;;;;5033599;28;20038;-72
2023/10/26 05:33:05;;;;;;;46.30;23.00;;;9.90;99.90;;;;;;5037487;28;20048;-72
2023/10/26 05:35:30;;;;;;;51.17;24.13;;;9.90;99.90;;;;;;5048660;28;20506;-72
2023/10/26 05:37:56;;;;;;;50.30;24.48;;;9.80;99.90;;;;;;5040778;28;20041;-72
2023/10/26 05:40:21;;;;;;;46.47;23.67;;;9.80;99.90;;;;;;5045641;28;20041;-72
2023/10/26 05:42:47;;;;;;;43.55;22.90;;;9.70;99.90;;;;;;5061184;28;20554;-71
2023/10/26 05:45:13;;;;;;;47.97;23.35;;;9.70;99.90;;;;;;5063180;28;20463;-70
2023/10/26 05:47:38;;;;;;;47.47;23.23;;;9.70;99.90;;;;;;5041433;28;20035;-70
2023/10/26 05:50:05;;;;;;;44.85;23.08;;;9.70;99.90;;;;;;5041004;28;20086;-71
2023/10/26 05:52:31;;;;;;;46.00;22.17;;;9.70;99.90;;;;;;5048898;28;20485;-70
2023/10/26 05:54:56;;;;;;;43.72;22.65;;;9.70;99.90;;;;;;5055869;28;20044;-70
2023/10/26 05:57:22;;;;;;;44.40;22.40;;;9.70;99.90;;;;;;5029983;28;20047;-70
2023/10/26 05:59:47;;;;;;;43.97;22.88;;;9.80;99.90;;;;;;5043754;28;20131;-70
2023/10/26 06:02:13;;;;;;;45.17;22.42;;;9.70;99.90;;;;;;5039371;28;20093;-70
2023/10/26 06:04:38;;;;;;;44.70;22.10;;;9.80;99.90;;;;;;5041666;28;20254;-71
2023/10/26 06:07:04;;;;;;;45.75;22.95;;;9.70;99.90;;;;;;5046185;28;20071;-70
2023/10/26 06:09:30;;;;;;;44.80;23.70;;;9.70;99.90;;;;;;5064010;28;20082;-71
2023/10/26 06:11:56;;;;;;;51.85;23.15;;;9.60;99.90;;;;;;5054238;28;20061;-72
2023/10/26 06:14:22;;;;;;;49.95;23.70;;;9.60;99.90;;;;;;5041113;28;20045;-72
2023/10/26 06:16:47;;;;;;;44.28;22.48;;;9.60;99.90;;;;;;5046692;28;20093;-72
2023/10/26 06:19:13;;;;;;;46.88;23.20;;;9.60;99.90;;;;;;5058133;28;20416;-72
2023/10/26 06:21:39;;;;;;;46.25;22.30;;;9.60;99.90;;;;;;5030785;28;20741;-72
2023/10/26 06:24:06;;;;;;;43.60;23.48;;;9.60;99.90;;;;;;5052739;28;20135;-73
2023/10/26 06:26:32;;;;;;;47.92;22.48;;;9.50;99.90;;;;;;5035939;28;20056;-71
2023/10/26 06:28:58;;;;;;;43.38;22.13;;;9.50;99.90;;;;;;5049813;28;20510;-70
2023/10/26 06:31:23;;;;;;;48.20;22.58;;;9.50;99.90;;;;;;5029207;28;20167;-71
2023/10/26 06:33:49;;;;;;;48.72;21.65;;;9.50;99.90;;;;;;5039248;28;20374;-71
2023/10/26 06:36:15;;;;;;;42.25;22.33;;;9.50;99.90;;;;;;5034508;28;20565;-70
2023/10/26 06:38:40;;;;;;;48.08;23.75;;;9.50;99.90;;;;;;5028379;28;20597;-72
2023/10/26 06:41:07;;;;;;;49.65;23.30;;;9.50;99.90;;;;;;5048648;28;20040;-72
2023/10/26 06:43:33;;;;;;;43.20;23.63;;;9.40;99.90;;;;;;5051957;28;20043;-72
2023/10/26 06:46:02;;;;;;;45.80;23.20;;;9.50;99.90;;;;;;5031491;28;20037;-72
2023/10/26 06:48:27;;;;;;;42.10;22.25;;;9.40;99.90;;;;;;5039220;28;20033;-72
2023/10/26 06:51:02;;;;;;;47.05;22.85;;;9.30;99.90;;;;;;5046218;28;20041;-72
2023/10/26 06:53:28;;;;;;;46.45;22.80;;;9.30;99.90;;;;;;5030076;28;20401;-72
2023/10/26 06:55:54;;;;;;;46.00;21.05;;;9.30;99.90;;;;;;5043286;28;20505;-72
2023/10/26 06:58:20;;;;;;;44.50;22.25;;;9.30;99.90;;;;;;5041797;28;20051;-72
2023/10/26 07:00:46;;;;;;;47.83;22.83;;;9.30;99.90;;;;;;5047009;28;20045;-70
2023/10/26 07:03:11;;;;;;;44.42;21.90;;;9.30;99.90;;;;;;5027348;28;20409;-71
2023/10/26 07:05:37;;;;;;;48.30;22.67;;;9.20;99.90;;;;;;5051112;28;20029;-72
2023/10/26 07:08:03;;;;;;;53.17;24.00;;;9.20;99.90;;;;;;5051633;28;20396;-72
2023/10/26 07:10:28;;;;;;;150.63;23.60;;;9.20;99.90;;;;;;5050253;28;20396;-72
2023/10/26 07:12:54;;;;;;;83.38;22.88;;;9.20;99.90;;;;;;5038825;28;20040;-71
2023/10/26 07:15:20;;;;;;;143.13;22.58;;;9.20;99.90;;;;;;5041154;28;20068;-71
2023/10/26 07:17:46;;;;;;;48.22;22.23;;;9.20;99.90;;;;;;5036290;28;20451;-71
2023/10/26 07:20:15;;;;;;;44.10;22.35;;;9.20;99.90;;;;;;5034687;28;20116;-71
2023/10/26 07:22:42;;;;;;;48.83;22.73;;;9.20;99.90;;;;;;5051018;28;20033;-71
2023/10/26 07:25:08;;;;;;;41.92;21.67;;;9.20;99.90;;;;;;5033851;28;20053;-71
2023/10/26 07:27:34;;;;;;;43.05;20.98;;;9.20;99.90;;;;;;5048908;28;20098;-71
2023/10/26 07:30:00;;;;;;;44.83;22.58;;;9.30;99.90;;;;;;5049566;28;20033;-72
2023/10/26 07:32:25;;;;;;;52.15;24.85;;;9.40;99.90;;;;;;5050045;28;20043;-72
2023/10/26 07:34:51;;;;;;;57.10;24.85;;;9.50;99.90;;;;;;5047617;28;20037;-72
2023/10/26 07:37:17;;;;;;;55.58;24.83;;;9.60;99.90;;;;;;5038195;28;20068;-72
2023/10/26 07:39:43;;;;;;;62.88;25.38;;;9.80;99.90;;;;;;5050292;28;20033;-72
2023/10/26 07:42:09;;;;;;;61.75;25.27;;;9.90;99.90;;;;;;5034719;28;20073;-72
2023/10/26 07:44:35;;;;;;;65.00;26.45;;;9.90;99.90;;;;;;5046347;28;20048;-72
2023/10/26 07:47:01;;;;;;;66.82;26.30;;;10.00;99.90;;;;;;5042106;28;20041;-72
2023/10/26 07:49:27;;;;;;;64.47;25.83;;;10.10;99.90;;;;;;5041363;28;20056;-72
2023/10/26 07:51:52;;;;;;;57.15;23.75;;;10.10;99.90;;;;;;5041431;28;20044;-72
2023/10/26 07:54:18;;;;;;;66.95;26.63;;;10.10;99.90;;;;;;5044799;28;20650;-72
2023/10/26 07:56:43;;;;;;;63.08;25.20;;;10.20;99.90;;;;;;5036386;28;20028;-72
2023/10/26 07:59:09;;;;;;;55.92;24.88;;;10.20;99.90;;;;;;5040432;28;20098;-72
2023/10/26 08:01:36;;;;;;;62.00;25.42;;;10.30;99.90;;;;;;5046650;28;20050;-72
2023/10/26 08:04:01;;;;;;;57.67;25.35;;;10.30;99.90;;;;;;5039849;28;20505;-71
2023/10/26 08:06:27;;;;;;;59.42;25.15;;;10.40;99.90;;;;;;5044592;28;20037;-71
2023/10/26 08:08:52;;;;;;;56.45;24.38;;;10.50;99.90;;;;;;5045342;28;20037;-71
2023/10/26 08:11:18;;;;;;;57.42;24.98;;;10.60;99.90;;;;;;5038735;28;20128;-71
2023/10/26 08:13:44;;;;;;;52.97;24.58;;;10.70;99.90;;;;;;5046685;28;20158;-71
2023/10/26 08:16:11;;;;;;;51.03;24.58;;;10.70;99.90;;;;;;5050109;28;20033;-71
2023/10/26 08:18:37;;;;;;;51.28;23.75;;;10.70;99.90;;;;;;5048688;28;20080;-72
2023/10/26 08:21:05;;;;;;;49.92;24.48;;;10.70;99.90;;;;;;5046275;28;20557;-72
2023/10/26 08:23:32;;;;;;;53.47;25.27;;;10.70;99.90;;;;;;5049210;28;20493;-72
2023/10/26 08:26:08;;;;;;;54.85;23.95;;;10.70;99.90;;;;;;5036864;28;20047;-72
2023/10/26 08:28:35;;;;;;;53.30;23.85;;;10.70;99.90;;;;;;5038957;28;20075;-71
2023/10/26 08:31:03;;;;;;;46.50;24.20;;;10.80;99.90;;;;;;5045606;28;20540;-71
2023/10/26 08:33:35;;;;;;;47.05;23.00;;;10.90;99.90;;;;;;5044950;28;20401;-71
2023/10/26 08:36:00;;;;;;;47.03;23.30;;;10.90;99.90;;;;;;5026561;28;20390;-71
2023/10/26 08:38:26;;;;;;;44.80;22.45;;;10.90;99.90;;;;;;5039882;28;20071;-71
2023/10/26 08:40:53;;;;;;;45.33;22.17;;;10.90;99.90;;;;;;5049921;28;20041;-71
2023/10/26 08:43:20;;;;;;;49.88;22.80;;;10.90;99.90;;;;;;5025754;28;20045;-71
2023/10/26 08:45:47;;;;;;;47.47;22.52;;;11.00;99.90;;;;;;5034685;28;20060;-71
2023/10/26 08:48:17;;;;;;;45.30;20.83;;;11.10;99.90;;;;;;5050080;28;20052;-71
2023/10/26 08:50:43;;;;;;;48.03;22.08;;;11.20;99.90;;;;;;5029561;28;20041;-72
2023/10/26 08:53:09;;;;;;;40.78;20.70;;;11.30;99.90;;;;;;5042718;28;20037;-71
2023/10/26 08:55:38;;;;;;;39.20;20.38;;;11.50;99.90;;;;;;5038390;28;20118;-71
2023/10/26 08:58:03;;;;;;;36.35;19.58;;;11.70;99.90;;;;;;5039945;28;20037;-73
2023/10/26 09:00:30;;;;;;;41.25;21.13;;;11.80;99.90;;;;;;5036596;28;20041;-72
2023/10/26 09:02:56;;;;;;;34.97;20.05;;;11.80;99.90;;;;;;5043620;28;20456;-71
2023/10/26 09:05:22;;;;;;;34.80;19.80;;;11.90;99.90;;;;;;5049274;28;20049;-71
2023/10/26 09:07:48;;;;;;;36.30;19.30;;;11.90;99.90;;;;;;5049812;28;20405;-72
2023/10/26 09:10:30;;;;;;;34.95;19.45;;;11.90;99.90;;;;;;5029553;28;20040;-72
2023/10/26 09:13:01;;;;;;;34.13;18.80;;;11.80;99.90;;;;;;5037361;28;20086;-72
2023/10/26 09:15:28;;;;;;;30.35;19.05;;;11.70;99.90;;;;;;5025705;28;20052;-71
2023/10/26 09:17:57;;;;;;;33.50;18.92;;;11.70;99.90;;;;;;5045202;28;20048;-72
2023/10/26 09:20:24;;;;;;;28.35;18.15;;;11.70;99.90;;;;;;5049191;28;20033;-72
2023/10/26 09:22:50;;;;;;;31.58;17.63;;;11.70;99.90;;;;;;5037891;28;20078;-72
2023/10/26 09:25:15;;;;;;;31.65;18.90;;;11.70;99.90;;;;;;5047802;28;20049;-72
2023/10/26 09:27:42;;;;;;;31.13;18.40;;;11.70;99.90;;;;;;5049613;28;20037;-71
2023/10/26 09:30:30;;;;;;;33.92;18.33;;;11.70;99.90;;;;;;5045779;28;20106;-72
2023/10/26 09:32:56;;;;;;;30.30;17.63;;;11.70;99.90;;;;;;5030994;28;20071;-72
2023/10/26 09:35:26;;;;;;;30.50;17.65;;;11.70;99.90;;;;;;5034621;28;20041;-72
2023/10/26 09:37:52;;;;;;;31.35;16.73;;;11.80;99.90;;;;;;5039271;28;20386;-72
2023/10/26 09:40:20;;;;;;;32.75;17.63;;;11.80;99.90;;;;;;5046652;28;20515;-72
2023/10/26 09:42:47;;;;;;;33.13;18.48;;;11.80;99.90;;;;;;5047394;28;20120;-72
2023/10/26 09:45:13;;;;;;;32.35;17.40;;;11.90;99.90;;;;;;5044070;28;20596;-72
2023/10/26 09:47:40;;;;;;;33.80;18.63;;;11.90;99.90;;;;;;5052405;28;20041;-71
2023/10/26 09:50:06;;;;;;;30.02;17.42;;;12.00;99.90;;;;;;5038480;28;20053;-71
2023/10/26 09:52:32;;;;;;;31.02;17.50;;;12.00;99.90;;;;;;5046513;28;20139;-72
2023/10/26 09:54:58;;;;;;;36.05;17.65;;;12.10;99.90;;;;;;5054892;28;20480;-72
2023/10/26 09:57:33;;;;;;;29.48;17.65;;;12.10;99.90;;;;;;5038005;28;20041;-72
2023/10/26 09:59:59;;;;;;;29.33;16.27;;;12.30;99.90;;;;;;5045686;28;20067;-72
2023/10/26 10:02:24;;;;;;;29.15;17.70;;;12.40;99.90;;;;;;5052214;28;20076;-72
2023/10/26 10:04:50;;;;;;;27.55;16.90;;;12.50;99.90;;;;;;5048332;28;20140;-71
2023/10/26 10:07:39;;;;;;;28.80;16.50;;;12.50;99.90;;;;;;5033306;28;20075;-72
2023/10/26 10:10:06;;;;;;;24.60;16.10;;;12.50;99.90;;;;;;5034278;28;20053;-72
2023/10/26 10:12:33;;;;;;;30.27;16.85;;;12.40;99.90;;;;;;5047921;28;20119;-71
2023/10/26 10:15:01;;;;;;;29.58;17.02;;;12.50;99.90;;;;;;5046474;28;20090;-71
2023/10/26 10:17:44;;;;;;;26.00;17.13;;;12.50;99.90;;;;;;5051427;28;20519;-71
2023/10/26 10:20:18;;;;;;;28.05;16.48;;;12.60;99.90;;;;;;5033957;28;20036;-72
2023/10/26 10:22:44;;;;;;;27.45;15.57;;;12.70;99.90;;;;;;5031181;28;20122;-72
2023/10/26 10:25:10;;;;;;;26.30;15.70;;;12.80;99.90;;;;;;5039166;28;20462;-72
2023/10/26 10:27:40;;;;;;;24.15;15.35;;;12.90;99.90;;;;;;5036682;28;20033;-72
2023/10/26 10:30:10;;;;;;;24.50;15.15;;;13.00;99.90;;;;;;5037383;28;20099;-72
2023/10/26 10:32:45;;;;;;;25.83;15.45;;;13.10;99.90;;;;;;5031138;28;20059;-72
2023/10/26 10:35:45;;;;;;;25.00;15.25;;;13.10;99.90;;;;;;5024820;28;20121;-71
2023/10/26 10:38:11;;;;;;;25.63;15.20;;;13.10;99.90;;;;;;5047316;28;20044;-72
2023/10/26 10:40:38;;;;;;;24.83;15.55;;;13.10;99.90;;;;;;5042584;28;20033;-72
2023/10/26 10:43:04;;;;;;;22.27;14.55;;;13.20;99.90;;;;;;5046201;28;20051;-73
2023/10/26 10:45:30;;;;;;;23.65;16.08;;;13.30;99.90;;;;;;5067898;28;20044;-72
2023/10/26 10:47:57;;;;;;;22.60;14.50;;;13.20;99.90;;;;;;5050579;28;20055;-72
2023/10/26 10:50:24;;;;;;;23.20;14.93;;;13.00;99.90;;;;;;5056393;28;20037;-72
2023/10/26 10:52:55;;;;;;;24.52;14.80;;;12.80;99.90;;;;;;5052523;28;20497;-72
2023/10/26 10:55:31;;;;;;;21.30;13.85;;;12.60;99.90;;;;;;5041570;28;20048;-72
2023/10/26 10:57:57;;;;;;;27.75;14.52;;;12.50;99.90;;;;;;5051487;28;20045;-72
2023/10/26 11:00:24;;;;;;;25.00;14.93;;;12.40;99.90;;;;;;5042170;28;20036;-72
2023/10/26 11:02:52;;;;;;;23.83;14.95;;;12.40;99.90;;;;;;5049282;28;20044;-71
2023/10/26 11:05:18;;;;;;;22.17;13.98;;;12.40;99.90;;;;;;5042033;28;20045;-72
2023/10/26 11:07:44;;;;;;;22.92;14.10;;;12.40;99.90;;;;;;5039386;28;20396;-71
2023/10/26 11:10:10;;;;;;;22.92;14.30;;;12.40;99.90;;;;;;5061351;28;20045;-72
2023/10/26 11:12:36;;;;;;;24.77;14.80;;;12.60;99.90;;;;;;5027753;28;20037;-72
2023/10/26 11:15:01;;;;;;;21.85;14.40;;;12.80;99.90;;;;;;5042406;28;20040;-71
2023/10/26 11:17:30;;;;;;;22.23;13.63;;;13.00;99.90;;;;;;5027554;28;20505;-72
2023/10/26 11:19:58;;;;;;;20.65;13.25;;;13.20;99.90;;;;;;5036898;28;20044;-72
2023/10/26 11:22:24;;;;;;;21.10;13.10;;;13.20;99.90;;;;;;5042206;28;20102;-72
2023/10/26 11:24:50;;;;;;;22.42;13.77;;;13.20;99.90;;;;;;5041690;28;20049;-72
2023/10/26 11:27:18;;;;;;;21.60;12.90;;;13.30;99.90;;;;;;5052628;28;20044;-72
2023/10/26 11:29:58;;;;;;;24.95;12.52;;;13.50;99.90;;;;;;5016742;28;20052;-72
2023/10/26 11:32:24;;;;;;;21.77;13.45;;;13.50;99.90;;;;;;5036873;28;20029;-73
2023/10/26 11:35:06;;;;;;;22.77;14.10;;;13.40;99.90;;;;;;5051282;28;20517;-73
2023/10/26 11:37:36;;;;;;;25.15;14.25;;;13.20;99.90;;;;;;5015189;28;20045;-73
2023/10/26 11:40:07;;;;;;;22.38;13.88;;;13.20;99.90;;;;;;5027840;28;20064;-71
2023/10/26 11:42:53;;;;;;;20.67;13.73;;;13.00;99.90;;;;;;5049953;28;20488;-73
2023/10/26 11:45:21;;;;;;;21.33;13.48;;;13.00;99.90;;;;;;5046896;28;20680;-73
2023/10/26 11:47:58;;;;;;;20.00;13.23;;;12.90;99.90;;;;;;5051394;28;20108;-73
2023/10/26 11:50:24;;;;;;;22.15;13.52;;;12.90;99.90;;;;;;5043125;28;20044;-73
2023/10/26 11:52:52;;;;;;;20.20;13.15;;;13.00;99.90;;;;;;5050754;28;20040;-73
2023/10/26 11:55:19;;;;;;;21.55;13.43;;;13.00;99.90;;;;;;5017829;28;20063;-73
2023/10/26 11:57:45;;;;;;;21.73;13.70;;;13.10;99.90;;;;;;5045730;28;20073;-73
2023/10/26 12:00:12;;;;;;;21.05;13.80;;;13.10;99.90;;;;;;5034425;28;20090;-72
2023/10/26 12:02:38;;;;;;;22.02;13.18;;;13.20;99.90;;;;;;5027093;28;20029;-72
2023/10/26 12:05:04;;;;;;;19.25;12.63;;;13.20;99.90;;;;;;5033848;28;20140;-72
2023/10/26 12:07:33;;;;;;;20.48;12.77;;;13.20;99.90;;;;;;5050412;28;20572;-72
2023/10/26 12:10:03;;;;;;;22.55;13.40;;;13.10;99.90;;;;;;5029966;28;20389;-72
2023/10/26 12:12:29;;;;;;;19.58;12.63;;;13.00;99.90;;;;;;5025561;28;20200;-72
2023/10/26 12:14:55;;;;;;;20.80;12.48;;;13.00;99.90;;;;;;5041691;28;20047;-72
2023/10/26 12:17:20;;;;;;;19.88;11.43;;;13.00;99.90;;;;;;5057544;28;20453;-72
2023/10/26 12:19:46;;;;;;;21.58;13.00;;;12.90;99.90;;;;;;5035731;28;20033;-73
2023/10/26 12:22:11;;;;;;;17.67;11.65;;;12.90;99.90;;;;;;5056502;28;20101;-73
2023/10/26 12:24:37;;;;;;;16.88;11.82;;;12.90;99.90;;;;;;5053429;28;20111;-73
2023/10/26 12:27:03;;;;;;;18.75;11.35;;;13.00;99.90;;;;;;5042577;28;20132;-72
2023/10/26 12:29:29;;;;;;;17.45;10.95;;;13.00;99.90;;;;;;5023195;28;20037;-73
2023/10/26 12:31:54;;;;;;;16.73;11.00;;;13.00;99.90;;;;;;5048397;28;20496;-73
2023/10/26 12:34:20;;;;;;;17.20;10.80;;;13.00;99.90;;;;;;5050874;28;20041;-73
2023/10/26 12:36:46;;;;;;;20.15;11.27;;;13.00;99.90;;;;;;5017489;28;20041;-73
2023/10/26 12:39:12;;;;;;;16.60;10.35;;;13.00;99.90;;;;;;5049285;28;20116;-73
2023/10/26 12:41:37;;;;;;;16.02;10.60;;;12.90;99.90;;;;;;5033339;28;20183;-72
2023/10/26 12:44:03;;;;;;;16.95;11.60;;;13.00;99.90;;;;;;5047121;28;20123;-72
2023/10/26 12:46:29;;;;;;;16.17;11.15;;;13.00;99.90;;;;;;5029759;28;20052;-72
2023/10/26 12:48:55;;;;;;;20.40;11.32;;;13.00;99.90;;;;;;5046021;28;20033;-72
2023/10/26 12:51:20;;;;;;;18.75;11.32;;;13.00;99.90;;;;;;5051459;28;20033;-72
2023/10/26 12:53:46;;;;;;;17.35;11.50;;;13.10;99.90;;;;;;5056262;28;20037;-72
2023/10/26 12:56:11;;;;;;;16.85;10.93;;;13.20;99.90;;;;;;5040545;28;20123;-72
2023/10/26 12:58:37;;;;;;;19.45;11.43;;;13.30;99.90;;;;;;5060003;28;20029;-72
2023/10/26 13:01:03;;;;;;;15.80;11.25;;;13.40;99.90;;;;;;5055823;28;20481;-72
2023/10/26 13:03:29;;;;;;;17.55;11.40;;;13.40;99.90;;;;;;5024541;28;20056;-72
2023/10/26 13:05:54;;;;;;;15.50;10.85;;;13.40;99.90;;;;;;5050529;28;20524;-72
2023/10/26 13:08:20;;;;;;;15.75;11.30;;;13.40;99.90;;;;;;5026832;28;20400;-72
2023/10/26 13:10:46;;;;;;;16.13;10.98;;;13.40;99.90;;;;;;5051663;28;20048;-72
2023/10/26 13:13:12;;;;;;;18.90;11.10;;;13.40;99.90;;;;;;5035424;28;20041;-72
2023/10/26 13:15:38;;;;;;;17.30;10.75;;;13.40;99.90;;;;;;5040617;28;20119;-72
2023/10/26 13:18:05;;;;;;;16.13;10.93;;;13.40;99.90;;;;;;5053052;28;20123;-72
2023/10/26 13:20:31;;;;;;;15.07;10.63;;;13.40;99.90;;;;;;5026851;28;20092;-72
2023/10/26 13:22:56;;;;;;;19.33;11.73;;;13.40;99.90;;;;;;5038041;28;20041;-72
2023/10/26 13:25:23;;;;;;;16.77;11.23;;;13.40;99.90;;;;;;5052204;28;20041;-73
2023/10/26 13:27:50;;;;;;;18.27;11.40;;;13.50;99.90;;;;;;5033762;28;20037;-71
2023/10/26 13:30:16;;;;;;;15.75;10.90;;;13.50;99.90;;;;;;5052366;28;20041;-71
2023/10/26 13:32:42;;;;;;;17.80;11.65;;;13.60;99.90;;;;;;5052887;28;20036;-73
2023/10/26 13:35:08;;;;;;;15.82;10.80;;;13.50;99.90;;;;;;5032969;28;20591;-73
2023/10/26 13:37:34;;;;;;;17.25;11.52;;;13.50;99.90;;;;;;5051967;28;20043;-73
2023/10/26 13:40:00;;;;;;;16.20;10.55;;;13.40;99.90;;;;;;5053494;28;20332;-73
2023/10/26 13:42:28;;;;;;;16.10;11.07;;;13.40;99.90;;;;;;5037967;28;20037;-73
2023/10/26 13:44:53;;;;;;;16.65;10.82;;;13.30;99.90;;;;;;5038261;28;20076;-73
2023/10/26 13:47:19;;;;;;;15.88;10.90;;;13.40;99.90;;;;;;5044054;28;20065;-73
2023/10/26 13:49:44;;;;;;;16.45;11.27;;;13.30;99.90;;;;;;5054844;28;20131;-73
2023/10/26 13:52:10;;;;;;;15.30;10.23;;;13.30;99.90;;;;;;5049268;28;20128;-72
2023/10/26 13:54:36;;;;;;;17.23;10.68;;;13.40;99.90;;;;;;5044045;28;20030;-72
2023/10/26 13:57:02;;;;;;;14.90;10.25;;;13.40;99.90;;;;;;5050221;28;20048;-71
2023/10/26 13:59:31;;;;;;;15.23;10.38;;;13.40;99.90;;;;;;5045344;28;20025;-71
2023/10/26 14:01:56;;;;;;;15.77;10.48;;;13.40;99.90;;;;;;5043769;28;20373;-72
2023/10/26 14:04:22;;;;;;;16.75;10.27;;;13.40;99.90;;;;;;5019147;28;20477;-72
2023/10/26 14:06:48;;;;;;;16.08;10.70;;;13.40;99.90;;;;;;5068954;28;20070;-72
2023/10/26 14:09:15;;;;;;;13.43;9.93;;;13.40;99.90;;;;;;5045857;28;20044;-72
2023/10/26 14:11:40;;;;;;;15.77;10.07;;;13.40;99.90;;;;;;5053409;28;20071;-72
2023/10/26 14:14:06;;;;;;;15.15;9.95;;;13.50;99.90;;;;;;5043355;28;20065;-72
2023/10/26 14:16:32;;;;;;;16.52;10.52;;;13.40;99.90;;;;;;5039801;28;20083;-72
2023/10/26 14:19:00;;;;;;;15.05;10.27;;;13.50;99.90;;;;;;5058020;28;20842;-72
2023/10/26 14:21:26;;;;;;;14.93;10.40;;;13.50;99.90;;;;;;5015561;28;20547;-72
2023/10/26 14:23:52;;;;;;;16.38;10.30;;;13.50;99.90;;;;;;5037508;28;20044;-73
2023/10/26 14:26:17;;;;;;;19.25;10.57;;;13.50;99.90;;;;;;5043995;28;20041;-73
2023/10/26 14:28:43;;;;;;;15.38;10.35;;;13.50;99.90;;;;;;5059148;28;20055;-73
2023/10/26 14:31:09;;;;;;;15.82;10.57;;;13.40;99.90;;;;;;5068698;28;20086;-73
2023/10/26 14:33:35;;;;;;;17.45;10.50;;;13.40;99.90;;;;;;5036375;28;20094;-73
2023/10/26 14:36:00;;;;;;;15.35;10.45;;;13.40;99.90;;;;;;5027622;28;20037;-73
2023/10/26 14:38:26;;;;;;;19.17;10.95;;;13.50;99.90;;;;;;5043124;28;20072;-73
2023/10/26 14:40:59;;;;;;;15.95;10.77;;;13.50;99.90;;;;;;5031687;28;20033;-73
2023/10/26 14:43:25;;;;;;;16.63;11.48;;;13.40;99.90;;;;;;5026537;28;20099;-73